Daydream Believer — V7XJ3 — position and weather

sailwx.info

Track history (hours):
 
Tides and Currents Weather Stations Pressure Air Temp Water Temp Dewpoint Dewpoint Depression Visibility Wind Speed Wind Dir Waves Ship Positions

Daydream Believer

Last reported at 2016-Sep-12 21:33 UTC. Time now 2016-Sep-29 15:23 UTC.
Position N 22°32' E 119°53'.
Warning: this ship's position is 16 days out of date.

Length 178 m; draft 10.1 m.

Type: Ship. MMSI: 538004493.

Date/timePositionNaut miles runAvg speedWind from/ knotsBaromVisibWave heightAir tempDewpointWater temp
2016-Sep-12 21:33N 22°32' E 119°53'  
2016-Sep-07 21:18N 01°15' E 104°06'912.3
2016-Sep-07 20:33N 01°15' E 103°57'3 2.3
2016-Sep-07 19:21N 01°16' E 103°54'0 0.0
2016-Sep-07 17:18N 01°16' E 103°54'0 0.1
2016-Sep-07 16:15N 01°16' E 103°54'0 0.0
2016-Sep-07 15:33N 01°16' E 103°54'0 0.0
2016-Sep-07 14:33N 01°16' E 103°54'0 0.0
2016-Sep-07 13:33N 01°16' E 103°54'0 0.0
2016-Sep-07 12:27N 01°16' E 103°54'0 0.1
2016-Sep-07 11:15N 01°16' E 103°54'0 0.0
2016-Sep-07 10:33N 01°16' E 103°54'0 0.0
2016-Sep-07 09:33N 01°16' E 103°54'0 0.0
2016-Sep-07 08:27N 01°16' E 103°54'0 0.0
2016-Sep-07 07:33N 01°16' E 103°54'0 0.0
2016-Sep-07 06:33N 01°16' E 103°54'2 0.9
2016-Sep-07 04:33N 01°15' E 103°55'5 4.5
2016-Sep-07 03:33N 01°12' E 103°52'75 9.4
2016-Sep-06 19:33N 01°41' E 102°42'1411.9
2016-Sep-06 18:20N 01°47' E 102°29'911.7
2016-Sep-06 17:33N 01°51' E 102°21'  
Track history (hours):
 
Tides and Currents Weather Stations Pressure Air Temp Water Temp Dewpoint Dewpoint Depression Visibility Wind Speed Wind Dir Waves Ship Positions

Daydream Believer

Last reported at 2016-Sep-12 21:33 UTC. Time now 2016-Sep-29 15:23 UTC.
Position N 22°32' E 119°53'.
Warning: this ship's position is 16 days out of date.

Length 178 m; draft 10.1 m.

Type: Ship. MMSI: 538004493.

Date/timePositionNaut miles runAvg speedWind from/ knotsBaromVisibWave heightAir tempDewpointWater temp
2016-Sep-12 21:33N 22°32' E 119°53'  
2016-Sep-07 21:18N 01°15' E 104°06'912.3
2016-Sep-07 20:33N 01°15' E 103°57'3 2.3
2016-Sep-07 19:21N 01°16' E 103°54'0 0.0
2016-Sep-07 17:18N 01°16' E 103°54'0 0.1
2016-Sep-07 16:15N 01°16' E 103°54'0 0.0
2016-Sep-07 15:33N 01°16' E 103°54'0 0.0
2016-Sep-07 14:33N 01°16' E 103°54'0 0.0
2016-Sep-07 13:33N 01°16' E 103°54'0 0.0
2016-Sep-07 12:27N 01°16' E 103°54'0 0.1
2016-Sep-07 11:15N 01°16' E 103°54'0 0.0
2016-Sep-07 10:33N 01°16' E 103°54'0 0.0
2016-Sep-07 09:33N 01°16' E 103°54'0 0.0
2016-Sep-07 08:27N 01°16' E 103°54'0 0.0
2016-Sep-07 07:33N 01°16' E 103°54'0 0.0
2016-Sep-07 06:33N 01°16' E 103°54'2 0.9
2016-Sep-07 04:33N 01°15' E 103°55'5 4.5
2016-Sep-07 03:33N 01°12' E 103°52'75 9.4
2016-Sep-06 19:33N 01°41' E 102°42'1411.9
2016-Sep-06 18:20N 01°47' E 102°29'911.7
2016-Sep-06 17:33N 01°51' E 102°21'  

Dump ship's entire track history